sensor_id;sensor_type;location;lat;lon;timestamp;pressure;altitude;pressure_sealevel;temperature;humidity
11345;BME280;5727;42.600;23.028;2022-08-06T00:01:49;93548.41;;;21.01;85.42
11345;BME280;5727;42.600;23.028;2022-08-06T00:04:16;93540.84;;;20.92;86.24
11345;BME280;5727;42.600;23.028;2022-08-06T00:06:44;93537.47;;;20.88;86.22
11345;BME280;5727;42.600;23.028;2022-08-06T00:09:11;93541.63;;;20.89;86.21
11345;BME280;5727;42.600;23.028;2022-08-06T00:11:38;93547.31;;;20.91;86.16
11345;BME280;5727;42.600;23.028;2022-08-06T00:14:05;93546.63;;;20.83;86.43
11345;BME280;5727;42.600;23.028;2022-08-06T00:16:33;93546.63;;;20.83;86.82
11345;BME280;5727;42.600;23.028;2022-08-06T00:18:59;93550.47;;;20.79;87.09
11345;BME280;5727;42.600;23.028;2022-08-06T00:21:26;93539.81;;;20.79;87.46
11345;BME280;5727;42.600;23.028;2022-08-06T00:23:53;93544.41;;;20.78;87.93
11345;BME280;5727;42.600;23.028;2022-08-06T00:26:20;93539.47;;;20.73;88.33
11345;BME280;5727;42.600;23.028;2022-08-06T00:28:47;93540.25;;;20.74;88.18
11345;BME280;5727;42.600;23.028;2022-08-06T00:31:13;93550.94;;;20.70;87.99
11345;BME280;5727;42.600;23.028;2022-08-06T00:33:41;93542.19;;;20.70;87.84
11345;BME280;5727;42.600;23.028;2022-08-06T00:36:09;93541.00;;;20.71;87.99
11345;BME280;5727;42.600;23.028;2022-08-06T00:38:35;93548.28;;;20.67;87.83
11345;BME280;5727;42.600;23.028;2022-08-06T00:41:03;93543.75;;;20.64;88.21
11345;BME280;5727;42.600;23.028;2022-08-06T00:43:30;93539.22;;;20.61;88.95
11345;BME280;5727;42.600;23.028;2022-08-06T00:45:56;93540.41;;;20.53;89.17
11345;BME280;5727;42.600;23.028;2022-08-06T00:48:23;93541.53;;;20.52;89.26
11345;BME280;5727;42.600;23.028;2022-08-06T00:50:51;93543.09;;;20.49;89.59
11345;BME280;5727;42.600;23.028;2022-08-06T00:53:18;93538.16;;;20.44;89.65
11345;BME280;5727;42.600;23.028;2022-08-06T00:55:45;93544.69;;;20.40;90.39
11345;BME280;5727;42.600;23.028;2022-08-06T00:58:11;93543.59;;;20.30;89.84
11345;BME280;5727;42.600;23.028;2022-08-06T01:00:38;93553.94;;;20.11;89.03
11345;BME280;5727;42.600;23.028;2022-08-06T01:03:05;93550.91;;;20.08;89.57
11345;BME280;5727;42.600;23.028;2022-08-06T01:05:32;93548.22;;;20.12;89.21
11345;BME280;5727;42.600;23.028;2022-08-06T01:08:00;93547.84;;;20.10;89.12
11345;BME280;5727;42.600;23.028;2022-08-06T01:10:27;93547.88;;;20.06;89.43
11345;BME280;5727;42.600;23.028;2022-08-06T01:12:54;93546.38;;;20.05;89.69
11345;BME280;5727;42.600;23.028;2022-08-06T01:15:20;93554.72;;;20.07;89.63
11345;BME280;5727;42.600;23.028;2022-08-06T01:17:54;93549.06;;;19.98;90.09
11345;BME280;5727;42.600;23.028;2022-08-06T01:20:27;93546.00;;;20.00;89.59
11345;BME280;5727;42.600;23.028;2022-08-06T01:23:15;93552.88;;;19.97;89.85
11345;BME280;5727;42.600;23.028;2022-08-06T01:26:14;93551.72;;;19.98;90.95
11345;BME280;5727;42.600;23.028;2022-08-06T01:28:55;93557.84;;;19.92;90.99
11345;BME280;5727;42.600;23.028;2022-08-06T01:31:30;93548.34;;;19.87;91.00
11345;BME280;5727;42.600;23.028;2022-08-06T01:34:00;93552.16;;;19.83;90.99
11345;BME280;5727;42.600;23.028;2022-08-06T01:36:33;93544.97;;;19.80;91.16
11345;BME280;5727;42.600;23.028;2022-08-06T01:39:03;93548.41;;;19.73;91.50
11345;BME280;5727;42.600;23.028;2022-08-06T01:41:34;93537.03;;;19.69;92.24
11345;BME280;5727;42.600;23.028;2022-08-06T01:44:11;93538.97;;;19.62;93.26
11345;BME280;5727;42.600;23.028;2022-08-06T01:46:42;93534.41;;;19.62;93.99
11345;BME280;5727;42.600;23.028;2022-08-06T01:49:11;93538.22;;;19.65;93.82
11345;BME280;5727;42.600;23.028;2022-08-06T01:51:40;93537.06;;;19.62;93.26
11345;BME280;5727;42.600;23.028;2022-08-06T01:54:09;93535.19;;;19.59;93.25
11345;BME280;5727;42.600;23.028;2022-08-06T01:56:39;93535.94;;;19.56;92.64
11345;BME280;5727;42.600;23.028;2022-08-06T01:59:09;93533.69;;;19.51;93.01
11345;BME280;5727;42.600;23.028;2022-08-06T02:01:38;93530.66;;;19.49;93.13
11345;BME280;5727;42.600;23.028;2022-08-06T02:04:06;93533.31;;;19.49;93.09
11345;BME280;5727;42.600;23.028;2022-08-06T02:06:37;93528.38;;;19.44;93.08
11345;BME280;5727;42.600;23.028;2022-08-06T02:09:09;93523.84;;;19.41;92.96
11345;BME280;5727;42.600;23.028;2022-08-06T02:11:39;93525.38;;;19.32;93.17
11345;BME280;5727;42.600;23.028;2022-08-06T02:14:11;93526.16;;;19.36;93.07
11345;BME280;5727;42.600;23.028;2022-08-06T02:16:41;93525.75;;;19.30;93.18
11345;BME280;5727;42.600;23.028;2022-08-06T02:19:12;93527.69;;;19.26;93.45
11345;BME280;5727;42.600;23.028;2022-08-06T02:21:42;93529.19;;;19.27;94.03
11345;BME280;5727;42.600;23.028;2022-08-06T02:24:10;93527.69;;;19.26;93.83
11345;BME280;5727;42.600;23.028;2022-08-06T02:26:39;93535.25;;;19.24;93.72
11345;BME280;5727;42.600;23.028;2022-08-06T02:29:11;93532.25;;;19.18;94.03
11345;BME280;5727;42.600;23.028;2022-08-06T02:31:40;93529.59;;;19.15;94.30
11345;BME280;5727;42.600;23.028;2022-08-06T02:34:07;93525.41;;;19.14;94.11
11345;BME280;5727;42.600;23.028;2022-08-06T02:36:43;93523.56;;;19.07;94.46
11345;BME280;5727;42.600;23.028;2022-08-06T02:39:17;93526.56;;;19.09;94.23
11345;BME280;5727;42.600;23.028;2022-08-06T02:41:50;93522.41;;;19.05;94.61
11345;BME280;5727;42.600;23.028;2022-08-06T02:44:26;93525.06;;;19.05;94.26
11345;BME280;5727;42.600;23.028;2022-08-06T02:47:02;93524.69;;;19.03;94.81
11345;BME280;5727;42.600;23.028;2022-08-06T02:49:33;93531.13;;;19.02;95.11
11345;BME280;5727;42.600;23.028;2022-08-06T02:52:05;93529.63;;;19.01;95.23
11345;BME280;5727;42.600;23.028;2022-08-06T02:54:38;93530.00;;;18.96;95.60
11345;BME280;5727;42.600;23.028;2022-08-06T02:57:08;93533.03;;;18.94;96.11
11345;BME280;5727;42.600;23.028;2022-08-06T02:59:45;93522.81;;;18.93;96.19
11345;BME280;5727;42.600;23.028;2022-08-06T03:02:12;93531.16;;;18.88;96.59
11345;BME280;5727;42.600;23.028;2022-08-06T03:04:45;93530.78;;;18.82;96.63
11345;BME280;5727;42.600;23.028;2022-08-06T03:07:14;93529.63;;;18.83;96.32
11345;BME280;5727;42.600;23.028;2022-08-06T03:09:45;93536.06;;;18.79;96.68
11345;BME280;5727;42.600;23.028;2022-08-06T03:12:15;93529.28;;;18.74;96.51
11345;BME280;5727;42.600;23.028;2022-08-06T03:14:44;93528.88;;;18.76;96.05
11345;BME280;5727;42.600;23.028;2022-08-06T03:17:14;93523.19;;;18.70;96.34
11345;BME280;5727;42.600;23.028;2022-08-06T03:19:43;93535.31;;;18.68;96.59
11345;BME280;5727;42.600;23.028;2022-08-06T03:22:11;93530.78;;;18.68;96.80
11345;BME280;5727;42.600;23.028;2022-08-06T03:24:39;93533.06;;;18.66;97.21
11345;BME280;5727;42.600;23.028;2022-08-06T03:27:08;93537.22;;;18.67;97.11
11345;BME280;5727;42.600;23.028;2022-08-06T03:29:38;93536.84;;;18.62;97.09
11345;BME280;5727;42.600;23.028;2022-08-06T03:32:08;93524.72;;;18.61;96.54
11345;BME280;5727;42.600;23.028;2022-08-06T03:34:35;93533.81;;;18.60;96.45
11345;BME280;5727;42.600;23.028;2022-08-06T03:37:04;93528.88;;;18.62;97.04
11345;BME280;5727;42.600;23.028;2022-08-06T03:39:32;93525.84;;;18.60;97.24
11345;BME280;5727;42.600;23.028;2022-08-06T03:42:00;93523.19;;;18.60;96.99
11345;BME280;5727;42.600;23.028;2022-08-06T03:44:28;93523.19;;;18.60;96.78
11345;BME280;5727;42.600;23.028;2022-08-06T03:46:58;93524.72;;;18.61;96.65
11345;BME280;5727;42.600;23.028;2022-08-06T03:49:33;93537.97;;;18.71;97.37
11345;BME280;5727;42.600;23.028;2022-08-06T03:52:02;93536.84;;;18.69;97.33
11345;BME280;5727;42.600;23.028;2022-08-06T03:54:32;93542.94;;;18.73;97.86
11345;BME280;5727;42.600;23.028;2022-08-06T03:57:02;93536.09;;;18.72;97.91
11345;BME280;5727;42.600;23.028;2022-08-06T03:59:30;93543.66;;;18.70;98.70
11345;BME280;5727;42.600;23.028;2022-08-06T04:02:00;93547.47;;;18.69;98.66
11345;BME280;5727;42.600;23.028;2022-08-06T04:04:30;93549.72;;;18.77;97.98
11345;BME280;5727;42.600;23.028;2022-08-06T04:06:58;93550.50;;;18.78;97.82
11345;BME280;5727;42.600;23.028;2022-08-06T04:09:27;93548.97;;;18.84;96.46
11345;BME280;5727;42.600;23.028;2022-08-06T04:11:56;93555.06;;;18.88;96.19
11345;BME280;5727;42.600;23.028;2022-08-06T04:14:24;93554.28;;;18.91;96.45
11345;BME280;5727;42.600;23.028;2022-08-06T04:16:52;93550.09;;;18.93;96.31
11345;BME280;5727;42.600;23.028;2022-08-06T04:19:20;93548.97;;;18.98;96.07
11345;BME280;5727;42.600;23.028;2022-08-06T04:21:49;93552.75;;;18.97;95.90
11345;BME280;5727;42.600;23.028;2022-08-06T04:24:16;93562.63;;;19.03;95.71
11345;BME280;5727;42.600;23.028;2022-08-06T04:26:45;93565.28;;;19.07;95.10
11345;BME280;5727;42.600;23.028;2022-08-06T04:29:16;93573.63;;;19.09;94.63
11345;BME280;5727;42.600;23.028;2022-08-06T04:31:45;93572.81;;;19.15;94.04
11345;BME280;5727;42.600;23.028;2022-08-06T04:34:14;93578.91;;;19.19;93.75
11345;BME280;5727;42.600;23.028;2022-08-06T04:36:42;93572.84;;;19.19;93.59
11345;BME280;5727;42.600;23.028;2022-08-06T04:39:10;93572.09;;;19.18;93.23
11345;BME280;5727;42.600;23.028;2022-08-06T04:41:37;93570.94;;;19.16;93.08
11345;BME280;5727;42.600;23.028;2022-08-06T04:44:04;93578.88;;;19.23;93.66
11345;BME280;5727;42.600;23.028;2022-08-06T04:46:32;93575.50;;;19.33;93.10
11345;BME280;5727;42.600;23.028;2022-08-06T04:48:59;93571.69;;;19.41;93.00
11345;BME280;5727;42.600;23.028;2022-08-06T04:51:25;93575.84;;;19.39;92.87
11345;BME280;5727;42.600;23.028;2022-08-06T04:53:52;93585.69;;;19.52;91.88
11345;BME280;5727;42.600;23.028;2022-08-06T04:56:20;93572.75;;;19.58;91.69
11345;BME280;5727;42.600;23.028;2022-08-06T04:58:47;93587.94;;;19.64;91.36
11345;BME280;5727;42.600;23.028;2022-08-06T05:01:14;93585.25;;;19.71;91.16
11345;BME280;5727;42.600;23.028;2022-08-06T05:03:41;93589.03;;;19.77;91.30
11345;BME280;5727;42.600;23.028;2022-08-06T05:06:10;93590.53;;;19.85;90.96
11345;BME280;5727;42.600;23.028;2022-08-06T05:08:41;93598.09;;;19.90;90.33
11345;BME280;5727;42.600;23.028;2022-08-06T05:11:12;93593.53;;;19.94;90.39
11345;BME280;5727;42.600;23.028;2022-08-06T05:13:43;93590.09;;;19.97;90.32
11345;BME280;5727;42.600;23.028;2022-08-06T05:16:12;93588.94;;;19.98;89.86
11345;BME280;5727;42.600;23.028;2022-08-06T05:18:43;93581.34;;;20.00;89.71
11345;BME280;5727;42.600;23.028;2022-08-06T05:21:13;93583.56;;;20.13;88.92
11345;BME280;5727;42.600;23.028;2022-08-06T05:23:48;93588.50;;;20.25;87.79
11345;BME280;5727;42.600;23.028;2022-08-06T05:26:16;93590.00;;;20.26;87.62
11345;BME280;5727;42.600;23.028;2022-08-06T05:28:44;93590.38;;;20.24;88.18
11345;BME280;5727;42.600;23.028;2022-08-06T05:31:11;93586.13;;;20.37;87.40
11345;BME280;5727;42.600;23.028;2022-08-06T05:33:38;93595.63;;;20.42;86.70
11345;BME280;5727;42.600;23.028;2022-08-06T05:36:07;93592.91;;;20.49;86.62
11345;BME280;5727;42.600;23.028;2022-08-06T05:38:35;93590.56;;;20.58;86.08
11345;BME280;5727;42.600;23.028;2022-08-06T05:41:04;93586.38;;;20.57;86.54
11345;BME280;5727;42.600;23.028;2022-08-06T05:43:31;93592.69;;;20.80;85.63
11345;BME280;5727;42.600;23.028;2022-08-06T05:46:03;93595.28;;;20.87;85.44
11345;BME280;5727;42.600;23.028;2022-08-06T05:48:35;93583.03;;;20.97;85.57
11345;BME280;5727;42.600;23.028;2022-08-06T05:51:08;93580.31;;;21.11;83.92
11345;BME280;5727;42.600;23.028;2022-08-06T05:53:41;93584.53;;;21.05;84.05
11345;BME280;5727;42.600;23.028;2022-08-06T05:56:11;93580.59;;;21.20;83.00
11345;BME280;5727;42.600;23.028;2022-08-06T05:58:41;93573.38;;;21.21;82.87
11345;BME280;5727;42.600;23.028;2022-08-06T06:01:12;93582.78;;;21.29;83.08
11345;BME280;5727;42.600;23.028;2022-08-06T06:03:40;93579.31;;;21.35;83.27
11345;BME280;5727;42.600;23.028;2022-08-06T06:06:08;93574.25;;;21.44;83.04
11345;BME280;5727;42.600;23.028;2022-08-06T06:08:35;93581.13;;;21.45;82.63
11345;BME280;5727;42.600;23.028;2022-08-06T06:11:03;93576.88;;;21.51;82.67
11345;BME280;5727;42.600;23.028;2022-08-06T06:13:33;93570.97;;;21.67;81.78
11345;BME280;5727;42.600;23.028;2022-08-06T06:16:07;93570.09;;;21.77;81.69
11345;BME280;5727;42.600;23.028;2022-08-06T06:18:48;93567.41;;;21.84;79.92
11345;BME280;5727;42.600;23.028;2022-08-06T06:21:28;93564.59;;;21.95;77.62
11345;BME280;5727;42.600;23.028;2022-08-06T06:24:02;93564.72;;;22.14;77.60
11345;BME280;5727;42.600;23.028;2022-08-06T06:26:37;93566.44;;;22.28;77.36
11345;BME280;5727;42.600;23.028;2022-08-06T06:29:08;93566.66;;;22.40;77.79
11345;BME280;5727;42.600;23.028;2022-08-06T06:31:40;93566.88;;;22.53;76.61
11345;BME280;5727;42.600;23.028;2022-08-06T06:34:15;93564.53;;;22.58;76.78
11345;BME280;5727;42.600;23.028;2022-08-06T06:36:49;93552.16;;;22.68;76.73
11345;BME280;5727;42.600;23.028;2022-08-06T06:39:22;93554.31;;;22.77;76.70
11345;BME280;5727;42.600;23.028;2022-08-06T06:41:55;93553.09;;;22.81;76.57
11345;BME280;5727;42.600;23.028;2022-08-06T06:44:30;93549.94;;;22.90;75.86
11345;BME280;5727;42.600;23.028;2022-08-06T06:47:04;93542.66;;;22.90;75.84
11345;BME280;5727;42.600;23.028;2022-08-06T06:49:39;93545.16;;;23.01;76.18
11345;BME280;5727;42.600;23.028;2022-08-06T06:52:10;93546.06;;;23.14;75.79
11345;BME280;5727;42.600;23.028;2022-08-06T06:54:42;93545.06;;;23.27;75.04
11345;BME280;5727;42.600;23.028;2022-08-06T06:57:11;93543.28;;;23.44;75.15
11345;BME280;5727;42.600;23.028;2022-08-06T06:59:43;93540.75;;;23.56;75.08
11345;BME280;5727;42.600;23.028;2022-08-06T07:02:16;93542.16;;;23.65;73.23
11345;BME280;5727;42.600;23.028;2022-08-06T07:04:47;93538.09;;;23.76;72.43
11345;BME280;5727;42.600;23.028;2022-08-06T07:07:15;93533.63;;;23.89;72.00
11345;BME280;5727;42.600;23.028;2022-08-06T07:09:43;93544.09;;;24.00;71.26
11345;BME280;5727;42.600;23.028;2022-08-06T07:12:11;93547.50;;;24.04;71.90
11345;BME280;5727;42.600;23.028;2022-08-06T07:14:39;93533.56;;;24.12;71.08
11345;BME280;5727;42.600;23.028;2022-08-06T07:17:07;93528.47;;;24.18;71.22
11345;BME280;5727;42.600;23.028;2022-08-06T07:19:35;93533.78;;;24.37;70.31
11345;BME280;5727;42.600;23.028;2022-08-06T07:22:04;93536.72;;;24.43;70.22
11345;BME280;5727;42.600;23.028;2022-08-06T07:24:33;93537.66;;;24.52;69.76
11345;BME280;5727;42.600;23.028;2022-08-06T07:27:01;93528.53;;;24.66;68.42
11345;BME280;5727;42.600;23.028;2022-08-06T07:29:30;93533.56;;;24.80;68.51
11345;BME280;5727;42.600;23.028;2022-08-06T07:31:57;93525.53;;;24.96;68.77
11345;BME280;5727;42.600;23.028;2022-08-06T07:34:26;93529.47;;;25.08;68.51
11345;BME280;5727;42.600;23.028;2022-08-06T07:36:54;93515.03;;;25.18;67.02
11345;BME280;5727;42.600;23.028;2022-08-06T07:39:25;93515.94;;;25.27;66.46
11345;BME280;5727;42.600;23.028;2022-08-06T07:41:55;93519.78;;;25.43;66.02
11345;BME280;5727;42.600;23.028;2022-08-06T07:44:23;93517.56;;;25.54;66.02
11345;BME280;5727;42.600;23.028;2022-08-06T07:46:53;93521.47;;;25.65;65.58
11345;BME280;5727;42.600;23.028;2022-08-06T07:49:25;93513.47;;;25.78;66.10
11345;BME280;5727;42.600;23.028;2022-08-06T07:51:54;93510.47;;;25.88;63.60
11345;BME280;5727;42.600;23.028;2022-08-06T07:54:23;93511.19;;;26.05;62.47
11345;BME280;5727;42.600;23.028;2022-08-06T07:56:55;93512.47;;;26.13;64.06
11345;BME280;5727;42.600;23.028;2022-08-06T07:59:22;93507.78;;;26.30;63.67
11345;BME280;5727;42.600;23.028;2022-08-06T08:01:50;93514.66;;;26.43;61.08
11345;BME280;5727;42.600;23.028;2022-08-06T08:04:18;93496.59;;;26.56;61.18
11345;BME280;5727;42.600;23.028;2022-08-06T08:07:05;93507.44;;;26.65;59.95
11345;BME280;5727;42.600;23.028;2022-08-06T08:09:35;93502.94;;;26.75;58.25
11345;BME280;5727;42.600;23.028;2022-08-06T08:12:03;93497.88;;;26.89;56.28
11345;BME280;5727;42.600;23.028;2022-08-06T08:14:31;93492.16;;;27.00;51.04
11345;BME280;5727;42.600;23.028;2022-08-06T08:16:58;93492.66;;;27.07;52.56
11345;BME280;5727;42.600;23.028;2022-08-06T08:19:28;93499.63;;;27.17;52.40
11345;BME280;5727;42.600;23.028;2022-08-06T08:21:58;93506.81;;;27.33;52.27
11345;BME280;5727;42.600;23.028;2022-08-06T08:24:26;93503.75;;;27.44;50.88
11345;BME280;5727;42.600;23.028;2022-08-06T08:26:55;93509.53;;;27.55;43.92
11345;BME280;5727;42.600;23.028;2022-08-06T08:29:21;93506.91;;;27.64;43.13
11345;BME280;5727;42.600;23.028;2022-08-06T08:31:48;93506.72;;;27.80;42.51
11345;BME280;5727;42.600;23.028;2022-08-06T08:34:15;93504.53;;;27.87;42.54
11345;BME280;5727;42.600;23.028;2022-08-06T08:36:42;93506.53;;;27.96;42.67
11345;BME280;5727;42.600;23.028;2022-08-06T08:39:09;93506.59;;;28.05;42.04
11345;BME280;5727;42.600;23.028;2022-08-06T08:41:39;93513.84;;;28.17;41.51
11345;BME280;5727;42.600;23.028;2022-08-06T08:44:08;93508.94;;;28.25;40.05
11345;BME280;5727;42.600;23.028;2022-08-06T08:46:37;93505.25;;;28.31;40.17
11345;BME280;5727;42.600;23.028;2022-08-06T08:49:06;93513.81;;;28.39;41.13
11345;BME280;5727;42.600;23.028;2022-08-06T08:51:37;93507.34;;;28.36;39.55
11345;BME280;5727;42.600;23.028;2022-08-06T08:54:06;93508.00;;;28.49;40.98
11345;BME280;5727;42.600;23.028;2022-08-06T08:56:34;93516.47;;;28.60;40.19
11345;BME280;5727;42.600;23.028;2022-08-06T08:59:04;93514.09;;;28.62;40.00
11345;BME280;5727;42.600;23.028;2022-08-06T09:01:33;93508.97;;;28.64;39.22
11345;BME280;5727;42.600;23.028;2022-08-06T09:04:02;93501.81;;;28.70;38.88
11345;BME280;5727;42.600;23.028;2022-08-06T09:06:29;93504.19;;;28.68;38.56
11345;BME280;5727;42.600;23.028;2022-08-06T09:08:58;93506.78;;;28.72;39.22
11345;BME280;5727;42.600;23.028;2022-08-06T09:11:28;93504.88;;;28.81;38.76
11345;BME280;5727;42.600;23.028;2022-08-06T09:13:55;93493.16;;;28.75;37.29
11345;BME280;5727;42.600;23.028;2022-08-06T09:16:22;93496.63;;;28.85;38.75
11345;BME280;5727;42.600;23.028;2022-08-06T09:18:50;93499.03;;;28.92;37.69
11345;BME280;5727;42.600;23.028;2022-08-06T09:21:17;93488.41;;;28.98;38.72
11345;BME280;5727;42.600;23.028;2022-08-06T09:23:44;93486.00;;;28.90;39.60
11345;BME280;5727;42.600;23.028;2022-08-06T09:26:11;93484.66;;;29.04;37.87
11345;BME280;5727;42.600;23.028;2022-08-06T09:28:39;93490.53;;;29.12;38.20
11345;BME280;5727;42.600;23.028;2022-08-06T09:31:07;93488.78;;;29.18;39.55
11345;BME280;5727;42.600;23.028;2022-08-06T09:33:35;93490.28;;;29.28;38.53
11345;BME280;5727;42.600;23.028;2022-08-06T09:36:06;93490.28;;;29.37;38.97
11345;BME280;5727;42.600;23.028;2022-08-06T09:38:45;93490.28;;;29.46;37.84
11345;BME280;5727;42.600;23.028;2022-08-06T09:41:14;93483.38;;;29.54;39.43
11345;BME280;5727;42.600;23.028;2022-08-06T09:43:42;93488.63;;;29.57;36.63
11345;BME280;5727;42.600;23.028;2022-08-06T09:46:09;93482.47;;;29.57;36.85
11345;BME280;5727;42.600;23.028;2022-08-06T09:48:36;93497.78;;;29.60;37.48
11345;BME280;5727;42.600;23.028;2022-08-06T09:51:04;93486.66;;;29.58;36.97
11345;BME280;5727;42.600;23.028;2022-08-06T09:53:31;93488.00;;;29.62;37.84
11345;BME280;5727;42.600;23.028;2022-08-06T09:55:58;93489.38;;;29.76;36.90
11345;BME280;5727;42.600;23.028;2022-08-06T09:58:32;93488.03;;;29.81;35.80
11345;BME280;5727;42.600;23.028;2022-08-06T10:01:14;93487.28;;;29.71;35.37
11345;BME280;5727;42.600;23.028;2022-08-06T10:03:41;93491.03;;;29.83;35.90
11345;BME280;5727;42.600;23.028;2022-08-06T10:06:14;93475.81;;;30.03;36.24
11345;BME280;5727;42.600;23.028;2022-08-06T10:08:42;93487.81;;;30.11;35.49
11345;BME280;5727;42.600;23.028;2022-08-06T10:11:09;93482.06;;;30.18;36.33
11345;BME280;5727;42.600;23.028;2022-08-06T10:13:36;93479.31;;;30.45;35.96
11345;BME280;5727;42.600;23.028;2022-08-06T10:16:18;93482.41;;;30.53;34.21
11345;BME280;5727;42.600;23.028;2022-08-06T10:18:46;93475.66;;;30.57;34.23
11345;BME280;5727;42.600;23.028;2022-08-06T10:21:17;93470.59;;;30.50;34.49
11345;BME280;5727;42.600;23.028;2022-08-06T10:23:46;93469.94;;;30.55;33.79
11345;BME280;5727;42.600;23.028;2022-08-06T10:26:21;93466.97;;;30.53;33.78
11345;BME280;5727;42.600;23.028;2022-08-06T10:28:49;93467.06;;;30.59;33.80
11345;BME280;5727;42.600;23.028;2022-08-06T10:31:18;93463.09;;;30.45;32.10
11345;BME280;5727;42.600;23.028;2022-08-06T10:33:48;93466.97;;;30.53;33.38
11345;BME280;5727;42.600;23.028;2022-08-06T10:36:23;93472.59;;;30.41;33.26
11345;BME280;5727;42.600;23.028;2022-08-06T10:38:54;93464.13;;;30.48;33.62
11345;BME280;5727;42.600;23.028;2022-08-06T10:41:22;93459.59;;;30.54;34.14
11345;BME280;5727;42.600;23.028;2022-08-06T10:43:49;93456.63;;;30.76;34.13
11345;BME280;5727;42.600;23.028;2022-08-06T10:46:19;93465.91;;;30.84;32.96
11345;BME280;5727;42.600;23.028;2022-08-06T10:48:46;93459.06;;;30.97;32.51
11345;BME280;5727;42.600;23.028;2022-08-06T10:51:14;93462.19;;;31.05;31.55
11345;BME280;5727;42.600;23.028;2022-08-06T10:53:44;93466.44;;;31.20;34.16
11345;BME280;5727;42.600;23.028;2022-08-06T10:56:13;93458.19;;;31.15;33.08
11345;BME280;5727;42.600;23.028;2022-08-06T10:58:41;93453.25;;;31.13;34.02
11345;BME280;5727;42.600;23.028;2022-08-06T11:01:09;93454.69;;;31.23;32.84
11345;BME280;5727;42.600;23.028;2022-08-06T11:03:46;93456.81;;;31.43;33.39
11345;BME280;5727;42.600;23.028;2022-08-06T11:09:34;93460.59;;;31.75;32.17
11345;BME280;5727;42.600;23.028;2022-08-06T11:12:15;93446.63;;;32.05;31.60
11345;BME280;5727;42.600;23.028;2022-08-06T11:14:45;93450.63;;;31.95;31.02
11345;BME280;5727;42.600;23.028;2022-08-06T11:17:12;93448.09;;;32.21;31.22
11345;BME280;5727;42.600;23.028;2022-08-06T11:19:41;93447.53;;;32.46;31.25
11345;BME280;5727;42.600;23.028;2022-08-06T11:22:31;93449.19;;;32.58;30.72
11345;BME280;5727;42.600;23.028;2022-08-06T11:25:00;93436.84;;;32.42;29.54
11345;BME280;5727;42.600;23.028;2022-08-06T11:27:50;93446.22;;;31.83;29.82
11345;BME280;5727;42.600;23.028;2022-08-06T11:30:18;93446.88;;;31.64;30.08
11345;BME280;5727;42.600;23.028;2022-08-06T11:32:46;93449.75;;;31.89;29.35
11345;BME280;5727;42.600;23.028;2022-08-06T11:35:39;93444.00;;;32.25;29.69
11345;BME280;5727;42.600;23.028;2022-08-06T11:38:07;93442.19;;;32.22;29.47
11345;BME280;5727;42.600;23.028;2022-08-06T11:40:55;93445.63;;;32.37;29.27
11345;BME280;5727;42.600;23.028;2022-08-06T11:43:42;93451.63;;;32.56;29.28
11345;BME280;5727;42.600;23.028;2022-08-06T11:46:20;93442.94;;;33.27;27.93
11345;BME280;5727;42.600;23.028;2022-08-06T11:49:13;93448.03;;;34.11;26.75
11345;BME280;5727;42.600;23.028;2022-08-06T11:51:41;93439.34;;;35.12;25.40
11345;BME280;5727;42.600;23.028;2022-08-06T11:54:13;93453.00;;;34.12;25.87
11345;BME280;5727;42.600;23.028;2022-08-06T11:57:19;93432.06;;;33.67;26.39
11345;BME280;5727;42.600;23.028;2022-08-06T12:00:00;93433.31;;;35.44;24.50
11345;BME280;5727;42.600;23.028;2022-08-06T12:02:58;93436.41;;;36.07;23.79
11345;BME280;5727;42.600;23.028;2022-08-06T12:05:42;93423.53;;;36.08;23.66
11345;BME280;5727;42.600;23.028;2022-08-06T12:08:15;93436.38;;;35.15;24.81
11345;BME280;5727;42.600;23.028;2022-08-06T12:13:45;93429.97;;;33.37;27.07
11345;BME280;5727;42.600;23.028;2022-08-06T12:16:26;93436.06;;;32.91;29.01
11345;BME280;5727;42.600;23.028;2022-08-06T12:18:53;93435.50;;;33.02;28.70
11345;BME280;5727;42.600;23.028;2022-08-06T12:21:21;93433.13;;;34.01;27.25
11345;BME280;5727;42.600;23.028;2022-08-06T12:23:49;93425.88;;;35.50;25.36
11345;BME280;5727;42.600;23.028;2022-08-06T12:26:17;93421.28;;;36.45;23.17
11345;BME280;5727;42.600;23.028;2022-08-06T12:28:46;93429.84;;;37.15;22.17
11345;BME280;5727;42.600;23.028;2022-08-06T12:31:13;93429.31;;;38.50;21.81
11345;BME280;5727;42.600;23.028;2022-08-06T12:33:43;93424.91;;;38.71;20.28
11345;BME280;5727;42.600;23.028;2022-08-06T12:36:09;93420.50;;;37.98;20.84
11345;BME280;5727;42.600;23.028;2022-08-06T12:38:36;93423.41;;;37.65;21.09
11345;BME280;5727;42.600;23.028;2022-08-06T12:41:05;93419.78;;;38.86;20.05
11345;BME280;5727;42.600;23.028;2022-08-06T12:43:34;93418.69;;;39.19;19.63
11345;BME280;5727;42.600;23.028;2022-08-06T12:46:03;93422.78;;;39.07;19.84
11345;BME280;5727;42.600;23.028;2022-08-06T12:48:31;93420.00;;;39.12;19.84
11345;BME280;5727;42.600;23.028;2022-08-06T12:51:02;93411.44;;;39.40;19.69
11345;BME280;5727;42.600;23.028;2022-08-06T12:53:29;93403.75;;;40.26;18.85
11345;BME280;5727;42.600;23.028;2022-08-06T12:55:57;93415.06;;;40.36;18.75
11345;BME280;5727;42.600;23.028;2022-08-06T12:58:31;93405.28;;;40.40;19.31
11345;BME280;5727;42.600;23.028;2022-08-06T13:01:02;93400.59;;;39.85;19.46
11345;BME280;5727;42.600;23.028;2022-08-06T13:03:31;93404.34;;;40.51;19.14
11345;BME280;5727;42.600;23.028;2022-08-06T13:06:00;93401.81;;;39.52;19.91
11345;BME280;5727;42.600;23.028;2022-08-06T13:08:28;93399.22;;;38.74;19.77
11345;BME280;5727;42.600;23.028;2022-08-06T13:10:56;93394.16;;;39.26;19.80
11345;BME280;5727;42.600;23.028;2022-08-06T13:13:37;93397.44;;;39.01;20.06
11345;BME280;5727;42.600;23.028;2022-08-06T13:16:07;93391.63;;;40.03;19.67
11345;BME280;5727;42.600;23.028;2022-08-06T13:18:34;93380.16;;;40.62;18.76
11345;BME280;5727;42.600;23.028;2022-08-06T13:21:02;93385.09;;;40.06;18.96
11345;BME280;5727;42.600;23.028;2022-08-06T13:23:31;93382.69;;;39.47;20.60